Accueil
METAR-TAF:

METAR-TAF

Aéroports :

Augsbourg, Allemagne

latitude: 48-26N, longitude: 010-56E, altitude: 461 m

Observation

Le bulletin a été fait il y a 43 minutes, à 21:50 UTC
Vent 7 kt de est
Température 0°C
Humidité 86%
Pression 1009 hPa
Visibilité 10 km ou plus

METAR: EDMA 202150Z AUTO 09007KT 9999 // NCD M00/M02 Q1009

Heure: 23:33 (22:33 UTC)

Prévision

Le bulletin a été fait il y a 5 heures et 33 minutes, à 17:00 UTC
Prévision valable du 20 à 18 UTC au 21 à 03 UTC
Vent 5 kt de est
Visibilité 10 km ou plus
pas de nuages en-dessous de 1500 mètres et pas de cumulonimbus.
Evoluant progressivement
du 20 à 18 UTC au 20 à 20 UTC
Visibilité: 3000 m
bancs de brouillard
Evoluant progressivement
du 20 à 20 UTC au 20 à 22 UTC
Visibilité: 2000 m
Ciel couvert à une hauteur de 300 ft

TAF: EDMA 201700Z 2018/2103 08005KT CAVOK BECMG 2018/2020 3000 BCFG BECMG 2020/2022 2000 OVC003

Observations et prévisions météorologiques de plus de 4000 aéroports (messages METAR et TAF).

Les stations disponibles sont représentées par des disques jaunes et rouges sur la carte.

Passer la souris dessus pour voir le nom de la station.

Cliquer dessus pour voir les observations et prévisions météorologiques.

Pour changer de carte: cliquez sur les boutons verts avec une croix noire pour zoomer, sur le bouton vert avec un tiret pour effectuer un zoom arrière, ou sur les flèches vertes pour les cartes adjacentes.


METAR-TAF: